Terminal Aerodrome Forecast
Issued by NWS

Current Version | Previous Version | Text Only | Print | Product List | Glossary Off
Versions: 1 2 3 4 5 6 7 8 9 10 11 12 13 14 15 16 17 18 19 20 21 22 23 24 25 26 27

000
FTUS41 KILN 191100
TAFLCK
TAF
KLCK 191131Z 1912/2012 07006KT P6SM SKC
     FM191500 09008KT P6SM FEW050
     FM200000 15006KT P6SM SKC
     FM200900 18010KT P6SM FEW050=

USA.gov is the U.S. government's official web portal to all federal, state and local government web resources and services.